Latest Coastal Weather Observations for Bellambi

IDN60701

Issued at 8:41 am EST Tuesday 30 May 2017 (issued every 10 minutes, with the page automatically refreshed every 10 minutes)

About coastal observations | Map of coastal stations | Coastal observations for NSW | Marine services | Other Formats
Station Details ID: 068228 Name: BELLAMBI AWS Lat: -34.37 Lon: 150.93 Height: 10.0 m
Data from the previous 72 hours. | See also: Recent months at Bellambi
Date/Time
EST
Temp
°C
Wind Pressure Rain since
9am
mm
Weather Cloud Vis
km
Sea
Height
m
Swell
Dir  Spd
kts
Gust
kts
hPa Trend Height
m
Period
s
Dir
30/08:30am 11.0 W 8 18 - - 0.0 - - - - - - -
30/08:00am 10.2 WNW 8 13 - - 0.0 - - - - - - -
30/07:30am 9.4 W 7 12 - - 0.0 - - - - - - -
30/07:00am 8.7 WSW 7 9 - - 0.0 - - - - - - -
30/06:30am 8.6 W 7 12 - - 0.0 - - - - - - -
30/06:00am 8.6 W 5 12 - - 0.0 - - - - - - -
30/05:30am 9.6 W 10 18 - - 0.0 - - - - - - -
30/05:00am 9.6 WSW 9 18 - - 0.0 - - - - - - -
30/04:30am 9.3 W 12 17 - - 0.0 - - - - - - -
30/04:00am 9.2 W 12 18 - - 0.0 - - - - - - -
30/03:30am 9.4 W 13 18 - - 0.0 - - - - - - -
30/03:00am 9.5 W 12 17 - - 0.0 - - - - - - -
30/02:30am 9.1 W 9 12 - - 0.0 - - - - - - -
30/02:00am 8.8 WNW 10 13 - - 0.0 - - - - - - -
30/01:30am 9.2 W 9 15 - - 0.0 - - - - - - -
30/01:00am 9.3 W 9 14 - - 0.0 - - - - - - -
30/12:30am 9.1 WNW 10 14 - - 0.0 - - - - - - -
30/12:00am 9.1 WNW 12 18 - - 0.0 - - - - - - -
 
Date/Time
EST
Temp
°C
Wind Pressure Rain since
9am
mm
Weather Cloud Vis
km
Sea
Height
m
Swell
Dir  Spd
kts
Gust
kts
hPa Trend Height
m
Period
s
Dir
29/11:30pm 9.3 WNW 10 14 - - 0.0 - - - - - - -
29/11:00pm 9.5 WNW 7 9 - - 0.0 - - - - - - -
29/10:30pm 9.8 WNW 10 15 - - 0.0 - - - - - - -
29/10:00pm 10.4 WNW 9 13 - - 0.0 - - - - - - -
29/09:30pm 10.6 W 12 18 - - 0.0 - - - - - - -
29/09:00pm 10.7 W 10 15 - - 0.0 - - - - - - -
29/08:30pm 11.0 W 12 17 - - 0.0 - - - - - - -
29/08:00pm 11.4 WNW 13 19 - - 0.0 - - - - - - -
29/07:30pm 11.7 WNW 13 19 - - 0.0 - - - - - - -
29/07:00pm 12.1 WNW 10 17 - - 0.0 - - - - - - -
29/06:30pm 12.4 WNW 11 18 - - 0.0 - - - - - - -
29/06:00pm 12.7 WNW 11 17 - - 0.0 - - - - - - -
29/05:30pm 12.9 W 7 13 - - 0.0 - - - - - - -
29/05:00pm 13.3 WNW 4 6 - - 0.0 - - - - - - -
29/04:30pm 14.5 WSW 6 10 - - 0.0 - - - - - - -
29/04:00pm 15.5 WSW 8 12 - - 0.0 - - - - - - -
29/03:30pm 16.1 W 8 12 - - 0.0 - - - - - - -
29/03:00pm 16.4 WSW 9 14 - - 0.0 - - - - - - -
29/02:30pm 16.8 WSW 10 14 - - 0.0 - - - - - - -
29/02:00pm 16.5 WSW 9 14 - - 0.0 - - - - - - -
29/01:30pm 16.5 WSW 10 15 - - 0.0 - - - - - - -
29/01:00pm 16.4 SW 11 15 - - 0.0 - - - - - - -
29/12:30pm 16.0 WSW 11 16 - - 0.0 - - - - - - -
29/12:00pm 16.1 SW 6 13 - - 0.0 - - - - - - -
29/11:30am 15.4 W 13 18 - - 0.0 - - - - - - -
29/11:00am 14.8 WSW 11 18 - - 0.0 - - - - - - -
29/10:30am 14.3 W 12 17 - - 0.0 - - - - - - -
29/10:00am 13.4 W 11 19 - - 0.0 - - - - - - -
29/09:30am 12.9 W 10 17 - - 0.0 - - - - - - -
29/09:00am 12.3 WSW 11 18 - - 0.2 - - - - - - -
29/08:30am 12.1 SSW 9 18 - - 0.2 - - - - - - -
29/08:00am 11.9 WSW 9 18 - - 0.2 - - - - - - -
29/07:30am 11.8 WNW 17 28 - - 0.2 - - - - - - -
29/07:00am 11.7 WNW 19 35 - - 0.2 - - - - - - -
29/06:55am 12.0 WNW 20 35 - - 0.2 - - - - - - -
29/06:31am 12.0 WNW 15 25 - - 0.2 - - - - - - -
29/06:30am 12.0 WNW 14 25 - - 0.2 - - - - - - -
29/06:00am 11.8 WNW 12 19 - - 0.2 - - - - - - -
29/05:30am 11.9 W 7 13 - - 0.2 - - - - - - -
29/05:00am 12.2 W 8 14 - - 0.2 - - - - - - -
29/04:30am 12.4 W 7 10 - - 0.2 - Partly cloudy - - - - -
29/04:00am 13.0 W 6 12 - - 0.2 - Partly cloudy - - - - -
29/03:30am 12.3 W 5 9 - - 0.2 - - - - - - -
29/03:00am 12.9 W 13 17 - - 0.2 - - - - - - -
29/02:30am 13.3 W 11 17 - - 0.2 - - - - - - -
29/02:00am 13.6 W 13 21 - - 0.2 - - - - - - -
29/01:30am 13.6 WNW 15 29 - - 0.2 - - - - - - -
29/01:02am 13.7 W 15 28 - - 0.2 - - - - - - -
29/01:00am 13.6 W 13 28 - - 0.2 - - - - - - -
29/12:30am 13.7 W 10 18 - - 0.2 - - - - - - -
29/12:00am 14.0 W 8 15 - - 0.2 - - - - - - -
 
Date/Time
EST
Temp
°C
Wind Pressure Rain since
9am
mm
Weather Cloud Vis
km
Sea
Height
m
Swell
Dir  Spd
kts
Gust
kts
hPa Trend Height
m
Period
s
Dir
28/11:30pm 14.4 W 11 18 - - 0.2 - - - - - - -
28/11:01pm 14.9 W 15 25 - - 0.2 - - - - - - -
28/11:00pm 14.8 W 14 25 - - 0.2 - - - - - - -
28/10:30pm 14.5 W 9 15 - - 0.2 - - - - - - -
28/10:00pm 15.0 W 11 22 - - 0.2 - - - - - - -
28/09:30pm 15.1 WSW 7 11 - - 0.2 - Partly cloudy - - - - -
28/09:00pm 15.6 W 7 12 - - 0.2 - Mostly clear - - - - -
28/08:30pm 15.9 WSW 10 18 - - 0.2 - Partly cloudy - - - - -
28/08:00pm 16.3 WSW 9 17 - - 0.2 - Partly cloudy - - - - -
28/07:30pm 16.9 W 10 19 - - 0.2 - - - - - - -
28/07:00pm 17.1 W 8 16 - - 0.2 - Partly cloudy - - - - -
28/06:30pm 17.2 WNW 9 13 - - 0.2 - Partly cloudy - - - - -
28/06:00pm 16.9 NW 8 11 - - 0.2 - Cloudy - - - - -
28/05:43pm 18.3 WNW 10 25 - - 0.2 - Partly cloudy - - - - -
28/05:30pm 18.3 W 3 5 - - 0.2 - Cloudy - - - - -
28/05:00pm 19.4 N 11 13 - - 0.2 - Partly cloudy - - - - -
28/04:30pm 20.1 N 15 20 - - 0.2 - Partly cloudy - - - - -
28/04:00pm 20.6 NNW 11 17 - - 0.2 - Partly cloudy - - - - -
28/03:30pm 20.6 N 9 12 - - 0.2 - Partly cloudy - - - - -
28/03:00pm 21.4 NNW 9 19 - - 0.2 - Mostly clear - - - - -
28/02:30pm 21.1 NNW 11 17 - - 0.2 - Partly cloudy - - - - -
28/02:00pm 21.9 NNW 11 16 - - 0.2 - Partly cloudy - - - - -
28/01:30pm 21.9 NNW 12 19 - - 0.2 - - - - - - -
28/01:00pm 21.2 NNE 9 12 - - 0.2 - - - - - - -
28/12:30pm 20.8 N 8 12 - - 0.2 - - - - - - -
28/12:00pm 20.2 NNE 11 16 - - 0.0 - - - - - - -
28/11:30am 20.2 NNE 9 13 - - 0.0 - - - - - - -
28/11:00am 19.8 ENE 8 9 - - 0.0 - - - - - - -
28/10:30am 19.6 NE 6 8 - - 0.0 - - - - - - -
28/10:00am 18.8 N 4 6 - - 0.0 - - - - - - -
28/09:30am 18.1 NE 3 6 - - 0.0 - - - - - - -
28/09:00am 17.6 NNE 6 7 - - 0.0 - - - - - - -
28/08:30am 16.6 NNE 6 9 - - 0.0 - - - - - - -
28/08:00am 15.1 NNW 3 5 - - 0.0 - - - - - - -
28/07:30am 13.0 W 5 7 - - 0.0 - - - - - - -
28/07:00am 12.8 W 6 8 - - 0.0 - - - - - - -
28/06:30am 13.2 W 2 5 - - 0.0 - - - - - - -
28/06:00am 13.8 NW 9 16 - - 0.0 - - - - - - -
28/05:30am 14.2 WNW 8 11 - - 0.0 - - - - - - -
28/05:00am 14.0 NW 8 12 - - 0.0 - - - - - - -
28/04:30am 14.3 NW 6 9 - - 0.0 - - - - - - -
28/04:00am 15.4 NNW 8 12 - - 0.0 - - - - - - -
28/03:30am 14.6 NW 3 5 - - 0.0 - - - - - - -
28/03:00am 14.7 NW 5 10 - - 0.0 - - - - - - -
28/02:30am 14.4 WNW 5 9 - - 0.0 - - - - - - -
28/02:00am 14.5 NW 5 9 - - 0.0 - - - - - - -
28/01:30am 14.8 N 8 16 - - 0.0 - - - - - - -
28/01:00am 14.9 NNW 11 13 - - 0.0 - - - - - - -
28/12:30am 15.5 NW 8 12 - - 0.0 - - - - - - -
28/12:00am 16.5 NE 6 10 - - 0.0 - - - - - - -
 
Date/Time
EST
Temp
°C
Wind Pressure Rain since
9am
mm
Weather Cloud Vis
km
Sea
Height
m
Swell
Dir  Spd
kts
Gust
kts
hPa Trend Height
m
Period
s
Dir
27/11:30pm 16.9 N 6 12 - - 0.0 - - - - - - -
27/11:00pm 17.1 N 11 15 - - 0.0 - - - - - - -
27/10:30pm 16.7 NNW 9 11 - - 0.0 - - - - - - -
27/10:00pm 16.1 NNW 9 11 - - 0.0 - - - - - - -
27/09:30pm 15.4 NNW 1 4 - - 0.0 - - - - - - -
27/09:00pm 15.6 NE 1 3 - - 0.0 - - - - - - -
27/08:30pm 15.4 NW 1 4 - - 0.0 - - - - - - -
27/08:00pm 15.9 NNW 6 8 - - 0.0 - - - - - - -
27/07:30pm 16.4 N 5 6 - - 0.0 - - - - - - -
27/07:00pm 16.4 NNW 7 7 - - 0.0 - - - - - - -
27/06:30pm 16.5 NNW 7 7 - - 0.0 - - - - - - -
27/06:00pm 16.1 NNW 5 7 - - 0.0 - - - - - - -
27/05:30pm 15.9 NW 5 6 - - 0.0 - - - - - - -
27/05:00pm 16.7 NW 5 6 - - 0.0 - - - - - - -
27/04:30pm 17.7 N 6 7 - - 0.0 - - - - - - -
27/04:00pm 18.2 N 5 6 - - 0.0 - - - - - - -
27/03:30pm 18.8 N 4 6 - - 0.0 - - - - - - -
27/03:00pm 19.0 NNE 4 6 - - 0.0 - - - - - - -
27/02:30pm 19.3 NE 5 5 - - 0.0 - - - - - - -
27/02:00pm 19.2 ENE 4 6 - - 0.0 - Partly cloudy - - - - -
27/01:30pm 19.0 E 4 6 - - 0.0 - - - - - - -
27/01:00pm 18.9 E 5 6 - - 0.0 - - - - - - -
27/12:30pm 18.5 ESE 5 6 - - 0.0 - - - - - - -
27/12:00pm 18.6 SE 5 6 - - 0.0 - - - - - - -
27/11:30am 18.0 SE 5 6 - - 0.0 - - - - - - -
27/11:00am 18.4 SSE 4 5 - - 0.0 - - - - - - -
27/10:30am 18.4 S 4 6 - - 0.0 - Partly cloudy - - - - -
27/10:00am 17.3 S 5 5 - - 0.0 - Partly cloudy - - - - -
27/09:30am 16.9 SSW 4 5 - - 0.0 - Partly cloudy - - - - -
27/09:00am 16.9 SW 5 6 - - 0.0 - - - - - - -

Other Formats:

Comma delimited format used in spreadsheet applications
http://www.bom.gov.au/fwo/IDN60701/IDN60701.94749.axf

JavaScript Object Notation format (JSON) in row-major order
http://www.bom.gov.au/fwo/IDN60701/IDN60701.94749.json